createdAt,value
2022-08-07T00:04:06.132Z,100931.22
2022-08-07T00:09:16.897Z,100940.34
2022-08-07T00:14:25.574Z,100932.16
2022-08-07T00:19:59.670Z,100936.28
2022-08-07T00:24:53.986Z,100940.56
2022-08-07T00:29:55.684Z,100926.59
2022-08-07T00:34:58.264Z,100927.47
2022-08-07T00:39:59.917Z,100927.31
2022-08-07T00:45:02.220Z,100925.38
2022-08-07T00:50:20.352Z,100922.44
2022-08-07T00:56:03.371Z,100926.94
2022-08-07T01:00:53.765Z,100919.41
2022-08-07T01:05:56.678Z,100911.38
2022-08-07T01:10:58.486Z,100919.75
2022-08-07T01:16:30.519Z,100917.22
2022-08-07T01:21:34.295Z,100916.56
2022-08-07T01:26:39.169Z,100908.56
2022-08-07T01:31:48.330Z,100914.44
2022-08-07T01:36:57.605Z,100915.22
2022-08-07T01:42:37.910Z,100920.19
2022-08-07T01:48:20.199Z,100923.41
2022-08-07T01:52:49.707Z,100924.25
2022-08-07T01:58:06.516Z,100915.44
2022-08-07T02:03:32.117Z,100927.94
2022-08-07T02:08:49.155Z,100927.88
2022-08-07T02:14:02.528Z,100924.97
2022-08-07T02:20:05.718Z,100927.41
2022-08-07T02:24:33.247Z,100932.75
2022-08-07T02:29:48.627Z,100925.94
2022-08-07T02:35:00.757Z,100926.34
2022-08-07T02:40:30.009Z,100938.19
2022-08-07T02:45:59.001Z,100938.31
2022-08-07T02:50:55.564Z,100930.22
2022-08-07T02:56:03.519Z,100930.97
2022-08-07T03:01:18.762Z,100930.09
2022-08-07T03:06:34.878Z,100927.69
2022-08-07T03:11:51.756Z,100925.84
2022-08-07T03:17:00.550Z,100926.78
2022-08-07T03:22:08.211Z,100921.56
2022-08-07T03:27:30.858Z,100912.97
2022-08-07T03:32:57.045Z,100917.56
2022-08-07T03:38:04.833Z,100917.63
2022-08-07T03:43:10.118Z,100905.50
2022-08-07T03:48:20.778Z,100915.56
2022-08-07T03:53:50.238Z,100912.78
2022-08-07T03:59:06.695Z,100906.34
2022-08-07T04:04:08.983Z,100910.59
2022-08-07T04:09:23.032Z,100920.72
2022-08-07T04:14:37.496Z,100912.31
2022-08-07T04:19:52.154Z,100913.34
2022-08-07T04:24:56.212Z,100916.66
2022-08-07T04:30:01.990Z,100923.72
2022-08-07T04:35:21.864Z,100925.25
2022-08-07T04:40:26.641Z,100914.59
2022-08-07T04:46:02.159Z,100929.00
2022-08-07T04:51:16.333Z,100927.69
2022-08-07T04:58:11.901Z,100928.34
2022-08-07T05:02:02.507Z,100927.31
2022-08-07T05:07:30.585Z,100930.13
2022-08-07T05:12:51.554Z,100927.59
2022-08-07T05:18:00.927Z,100928.75
2022-08-07T05:23:16.052Z,100940.91
2022-08-07T05:28:23.318Z,100939.50
2022-08-07T05:33:31.448Z,100929.38
2022-08-07T05:39:00.225Z,100941.78
2022-08-07T05:44:12.298Z,100937.72
2022-08-07T05:49:19.519Z,100930.53
2022-08-07T05:54:30.623Z,100952.13
2022-08-07T05:59:57.251Z,100941.38
2022-08-07T06:05:10.922Z,100949.25
2022-08-07T06:10:18.928Z,100946.50
2022-08-07T06:15:39.101Z,100940.38
2022-08-07T06:20:50.363Z,100933.03
2022-08-07T06:26:14.271Z,100940.19
2022-08-07T06:31:17.076Z,100930.06
2022-08-07T06:36:35.007Z,100938.56
2022-08-07T06:42:00.804Z,100934.81
2022-08-07T06:47:27.055Z,100939.34
2022-08-07T06:52:36.493Z,100943.22
2022-08-07T06:57:51.999Z,100928.84
2022-08-07T07:03:00.913Z,100931.59
2022-08-07T07:08:06.835Z,100926.78
2022-08-07T07:13:55.606Z,100925.81
2022-08-07T07:19:11.210Z,100918.22
2022-08-07T07:24:23.966Z,100916.25
2022-08-07T07:29:56.635Z,100914.66
2022-08-07T07:34:59.539Z,100914.47
2022-08-07T07:40:14.951Z,100903.72
2022-08-07T07:45:18.383Z,100895.38
2022-08-07T07:50:35.167Z,100890.25
2022-08-07T07:55:45.346Z,100892.09
2022-08-07T08:00:58.662Z,100889.63
2022-08-07T08:06:02.075Z,100882.03
2022-08-07T08:11:08.378Z,100893.75
2022-08-07T08:16:19.600Z,100889.66
2022-08-07T08:21:55.322Z,100885.88
2022-08-07T08:27:09.356Z,100886.22
2022-08-07T08:32:18.287Z,100883.75
2022-08-07T08:38:00.934Z,100873.59
2022-08-07T08:42:51.564Z,100867.66
2022-08-07T08:48:10.750Z,100861.66
2022-08-07T08:53:25.753Z,100859.13
2022-08-07T08:58:33.621Z,100862.41
2022-08-07T09:03:52.989Z,100855.41
2022-08-07T09:09:21.147Z,100851.97
2022-08-07T09:14:39.101Z,100853.22
2022-08-07T09:19:59.067Z,100855.94
2022-08-07T09:25:21.755Z,100849.69
2022-08-07T09:30:33.291Z,100840.50
2022-08-07T09:36:00.893Z,100825.47
2022-08-07T09:41:36.232Z,100823.09
2022-08-07T09:47:51.888Z,100820.47
2022-08-07T09:52:51.562Z,100818.75
2022-08-07T09:57:56.242Z,100816.66
2022-08-07T10:04:05.602Z,100807.34
2022-08-07T10:09:05.570Z,100794.03
2022-08-07T10:14:30.325Z,100774.00
2022-08-07T10:19:43.582Z,100786.84
2022-08-07T10:25:11.302Z,100775.38
2022-08-07T10:30:42.199Z,100759.75
2022-08-07T10:36:11.269Z,100720.63
2022-08-07T10:41:52.310Z,100764.34
2022-08-07T10:47:14.181Z,100756.84
2022-08-07T10:52:31.890Z,100748.16
2022-08-07T10:58:33.099Z,100742.06
2022-08-07T11:03:54.958Z,100731.06
2022-08-07T11:09:11.659Z,100722.16
2022-08-07T11:14:44.285Z,100718.59
2022-08-07T11:20:14.634Z,100713.88
2022-08-07T11:25:30.615Z,100697.50
2022-08-07T11:30:52.311Z,100701.50
2022-08-07T11:36:30.796Z,100681.59
2022-08-07T11:42:02.050Z,100678.38
2022-08-07T11:47:13.894Z,100677.19
2022-08-07T11:53:06.656Z,100674.88
2022-08-07T11:58:33.705Z,100660.97
2022-08-07T12:03:41.834Z,100659.25
2022-08-07T12:09:01.669Z,100653.97
2022-08-07T12:14:19.086Z,100648.25
2022-08-07T12:19:56.514Z,100645.44
2022-08-07T12:26:21.523Z,100641.81
2022-08-07T12:30:53.184Z,100634.81
2022-08-07T12:35:57.747Z,100630.00
2022-08-07T12:41:02.687Z,100623.09
2022-08-07T12:46:26.617Z,100622.72
2022-08-07T12:51:52.710Z,100628.22
2022-08-07T12:57:10.342Z,100623.59
2022-08-07T13:02:50.297Z,100619.03
2022-08-07T13:08:13.392Z,100616.94
2022-08-07T13:13:59.594Z,100612.97
2022-08-07T13:19:18.121Z,100597.78
2022-08-07T13:24:29.417Z,100599.88
2022-08-07T13:29:56.189Z,100595.88
2022-08-07T13:35:59.637Z,100584.22
2022-08-07T13:41:09.264Z,100585.94
2022-08-07T13:46:25.478Z,100567.34
2022-08-07T13:52:22.318Z,100571.03
2022-08-07T13:56:59.744Z,100564.91
2022-08-07T14:02:10.424Z,100561.13
2022-08-07T14:07:13.464Z,100553.91
2022-08-07T14:12:41.492Z,100559.81
2022-08-07T14:18:12.689Z,100548.59
2022-08-07T14:23:58.937Z,100547.00
2022-08-07T14:28:56.002Z,100538.53
2022-08-07T14:34:01.906Z,100541.38
2022-08-07T14:39:12.480Z,100532.91
2022-08-07T14:44:33.723Z,100522.97
2022-08-07T14:49:57.450Z,100533.75
2022-08-07T14:55:01.539Z,100529.47
2022-08-07T15:00:06.981Z,100527.91
2022-08-07T15:05:20.617Z,100526.44
2022-08-07T15:10:29.814Z,100529.16
2022-08-07T15:15:40.619Z,100532.97
2022-08-07T15:20:54.981Z,100530.88
2022-08-07T15:25:59.800Z,100516.25
2022-08-07T15:31:05.849Z,100518.34
2022-08-07T15:36:09.405Z,100517.25
2022-08-07T15:46:51.762Z,100506.78
2022-08-07T15:57:00.870Z,100500.00
2022-08-07T16:02:05.317Z,100489.53
2022-08-07T16:08:32.499Z,100495.66
2022-08-07T16:12:40.554Z,100484.00
2022-08-07T16:18:50.004Z,100489.13
2022-08-07T16:24:00.599Z,100483.03
2022-08-07T16:30:10.125Z,100488.34
2022-08-07T16:35:51.663Z,100486.88
2022-08-07T16:41:04.541Z,100484.06
2022-08-07T16:47:06.815Z,100483.31
2022-08-07T16:52:51.731Z,100481.72
2022-08-07T16:58:02.958Z,100482.34
2022-08-07T17:03:57.695Z,100479.34
2022-08-07T17:09:14.282Z,100477.41
2022-08-07T17:14:33.009Z,100475.81
2022-08-07T17:20:02.681Z,100483.16
2022-08-07T17:25:18.458Z,100475.50
2022-08-07T17:30:27.154Z,100480.13
2022-08-07T17:35:57.444Z,100475.25
2022-08-07T17:42:04.786Z,100480.25
2022-08-07T17:46:53.239Z,100487.97
2022-08-07T17:52:10.615Z,100480.97
2022-08-07T17:57:59.175Z,100482.47
2022-08-07T18:04:03.964Z,100486.22
2022-08-07T18:09:05.834Z,100489.97
2022-08-07T18:14:16.483Z,100483.38
2022-08-07T18:21:09.769Z,100492.91
2022-08-07T18:24:59.004Z,100487.63
2022-08-07T18:30:31.391Z,100492.84
2022-08-07T18:35:50.281Z,100491.69
2022-08-07T18:41:45.048Z,100497.59
2022-08-07T18:47:06.380Z,100506.47
2022-08-07T18:52:53.064Z,100507.63
2022-08-07T18:58:14.349Z,100515.50
2022-08-07T19:03:37.902Z,100530.47
2022-08-07T19:08:46.391Z,100531.09
2022-08-07T19:14:11.661Z,100540.97
2022-08-07T19:19:37.613Z,100547.75
2022-08-07T19:24:44.673Z,100545.06
2022-08-07T19:31:05.119Z,100545.91
2022-08-07T19:35:19.314Z,100557.56
2022-08-07T19:40:34.688Z,100550.84
2022-08-07T19:46:09.286Z,100560.91
2022-08-07T19:51:05.196Z,100560.00
2022-08-07T19:57:51.611Z,100567.84
2022-08-07T20:01:57.986Z,100567.47
2022-08-07T20:07:00.833Z,100568.00
2022-08-07T20:12:31.371Z,100565.84
2022-08-07T20:17:26.735Z,100569.75
2022-08-07T20:22:34.491Z,100571.94
2022-08-07T20:27:46.440Z,100578.63
2022-08-07T20:32:54.724Z,100587.88
2022-08-07T20:37:59.439Z,100584.28
2022-08-07T20:43:14.692Z,100573.31
2022-08-07T20:48:30.304Z,100587.13
2022-08-07T20:54:03.370Z,100591.69
2022-08-07T20:59:01.374Z,100592.19
2022-08-07T21:04:22.091Z,100596.63
2022-08-07T21:09:52.398Z,100601.88
2022-08-07T21:15:05.933Z,100602.66
2022-08-07T21:20:26.719Z,100612.97
2022-08-07T21:25:42.644Z,100600.81
2022-08-07T21:31:02.937Z,100609.84
2022-08-07T21:36:11.789Z,100617.25
2022-08-07T21:41:38.224Z,100624.38
2022-08-07T21:47:12.460Z,100623.22
2022-08-07T21:52:33.572Z,100626.06
2022-08-07T21:58:12.635Z,100626.03
2022-08-07T22:03:46.242Z,100626.06
2022-08-07T22:08:58.787Z,100626.41
2022-08-07T22:14:05.219Z,100626.47
2022-08-07T22:19:29.994Z,100630.22
2022-08-07T22:24:41.199Z,100632.53
2022-08-07T22:29:55.556Z,100624.50
2022-08-07T22:35:02.091Z,100624.41
2022-08-07T22:40:22.656Z,100635.00
2022-08-07T22:46:21.764Z,100624.72
2022-08-07T22:51:43.205Z,100628.59
2022-08-07T22:57:05.249Z,100631.03
2022-08-07T23:02:13.668Z,100640.72
2022-08-07T23:07:42.128Z,100637.28
2022-08-07T23:13:14.491Z,100636.56
2022-08-07T23:19:13.755Z,100638.28
2022-08-07T23:24:50.714Z,100645.75
2022-08-07T23:30:38.933Z,100642.53
2022-08-07T23:35:55.586Z,100646.09
2022-08-07T23:42:01.798Z,100647.03
2022-08-07T23:47:22.752Z,100648.50
2022-08-07T23:53:01.106Z,100653.00
2022-08-07T23:58:18.495Z,100641.00
